Time;durP1;ratioP1;P1;durP2;ratioP2;P2;SDS_P1;SDS_P2;PMS_P1;PMS_P2;Temp;Humidity;BMP_temperature;BMP_pressure;BME280_temperature;BME280_humidity;BME280_pressure;Samples;Min_cycle;Max_cycle;Signal;HPM_P1;HPM_P2
2022/03/07 00:01:19;;;;;;;1.73;1.48;;;-8.90;92.20;;;;;;4392441;32;20092;-63
2022/03/07 00:03:45;;;;;;;1.60;1.42;;;-8.90;92.20;;;;;;4378483;32;20081;-62
2022/03/07 00:06:11;;;;;;;3.53;1.55;;;-8.90;92.10;;;;;;4392441;32;20143;-63
2022/03/07 00:08:38;;;;;;;2.83;1.55;;;-8.80;92.40;;;;;;4392561;32;20073;-63
2022/03/07 00:11:04;;;;;;;2.55;1.60;;;-8.90;91.70;;;;;;4390857;32;20176;-62
2022/03/07 00:13:30;;;;;;;1.42;1.33;;;-8.90;91.60;;;;;;4391018;32;20508;-62
2022/03/07 00:15:57;;;;;;;1.77;1.35;;;-8.90;91.30;;;;;;4391928;32;20081;-62
2022/03/07 00:18:23;;;;;;;1.87;1.33;;;-8.80;91.20;;;;;;4390545;32;20081;-63
2022/03/07 00:20:50;;;;;;;2.05;1.05;;;-8.90;91.10;;;;;;4392039;32;20085;-63
2022/03/07 00:23:16;;;;;;;2.47;1.48;;;-9.00;91.10;;;;;;4390789;32;20149;-63
2022/03/07 00:25:42;;;;;;;2.50;1.40;;;-9.00;91.20;;;;;;4390966;32;20527;-63
2022/03/07 00:28:09;;;;;;;2.55;1.50;;;-8.90;90.80;;;;;;4390330;32;20511;-62
2022/03/07 00:30:36;;;;;;;1.70;1.50;;;-8.80;90.80;;;;;;4392179;32;20089;-62
2022/03/07 00:33:03;;;;;;;1.83;1.33;;;-8.80;90.40;;;;;;4390847;32;20074;-63
2022/03/07 00:35:29;;;;;;;2.65;1.50;;;-8.90;91.00;;;;;;4390228;32;20165;-63
2022/03/07 00:37:55;;;;;;;1.35;1.25;;;-8.90;91.50;;;;;;4392303;32;20061;-63
2022/03/07 00:40:22;;;;;;;1.40;1.23;;;-8.90;91.20;;;;;;4390525;32;20170;-62
2022/03/07 00:42:48;;;;;;;2.42;1.40;;;-8.80;91.20;;;;;;4390692;32;20082;-63
2022/03/07 00:45:14;;;;;;;1.50;1.20;;;-8.70;91.40;;;;;;4392293;32;20531;-62
2022/03/07 00:47:41;;;;;;;1.75;1.23;;;-8.80;91.80;;;;;;4389969;32;20609;-62
2022/03/07 00:50:08;;;;;;;1.67;1.40;;;-8.80;91.40;;;;;;4390210;32;20169;-63
2022/03/07 00:52:34;;;;;;;1.95;1.35;;;-8.80;91.90;;;;;;4390469;32;20074;-63
2022/03/07 00:55:01;;;;;;;1.87;1.35;;;-8.70;91.10;;;;;;4389959;32;20191;-63
2022/03/07 00:57:27;;;;;;;1.48;1.35;;;-8.90;91.70;;;;;;4390216;32;20069;-64
2022/03/07 00:59:55;;;;;;;1.52;1.27;;;-8.80;91.10;;;;;;4378026;32;20077;-63
2022/03/07 01:02:21;;;;;;;1.95;1.35;;;-8.60;91.10;;;;;;4378321;32;20078;-62
2022/03/07 01:04:48;;;;;;;1.80;1.52;;;-8.70;91.40;;;;;;4378346;32;20107;-63
2022/03/07 01:07:14;;;;;;;2.10;1.30;;;-8.80;91.40;;;;;;4391548;32;20065;-63
2022/03/07 01:09:40;;;;;;;2.20;1.27;;;-8.80;91.70;;;;;;4391348;32;20154;-63
2022/03/07 01:12:07;;;;;;;2.72;1.58;;;-8.80;91.50;;;;;;4391659;32;20086;-64
2022/03/07 01:14:34;;;;;;;1.42;1.17;;;-8.80;91.50;;;;;;4391272;32;20086;-63
2022/03/07 01:17:00;;;;;;;2.95;1.40;;;-8.80;91.40;;;;;;4391224;32;20093;-62
2022/03/07 01:19:26;;;;;;;2.25;1.55;;;-8.80;91.80;;;;;;4391823;32;20161;-63
2022/03/07 01:21:53;;;;;;;1.45;1.23;;;-8.70;91.60;;;;;;4378701;32;20184;-63
2022/03/07 01:24:19;;;;;;;2.62;1.87;;;-8.80;91.80;;;;;;4391635;32;20544;-63
2022/03/07 01:26:46;;;;;;;2.20;1.27;;;-8.80;92.10;;;;;;4391119;32;20079;-63
2022/03/07 01:29:13;;;;;;;2.65;1.30;;;-8.80;91.50;;;;;;4391406;32;20084;-63
2022/03/07 01:31:39;;;;;;;2.22;1.45;;;-8.90;91.60;;;;;;4377281;32;20182;-63
2022/03/07 01:34:05;;;;;;;2.42;1.30;;;-8.90;91.90;;;;;;4390588;32;20070;-61
2022/03/07 01:36:32;;;;;;;2.90;1.58;;;-8.80;91.60;;;;;;4391415;32;20165;-62
2022/03/07 01:38:58;;;;;;;2.45;1.55;;;-8.80;91.60;;;;;;4403272;32;20197;-66
2022/03/07 01:41:24;;;;;;;3.08;1.50;;;-8.80;91.70;;;;;;4394015;32;20088;-63
2022/03/07 01:43:51;;;;;;;2.17;1.60;;;-8.80;91.50;;;;;;4389806;32;20092;-63
2022/03/07 01:46:17;;;;;;;1.52;1.20;;;-8.80;91.60;;;;;;4391581;32;20085;-63
2022/03/07 01:48:43;;;;;;;1.70;1.33;;;-8.70;91.30;;;;;;4391325;32;20078;-63
2022/03/07 01:51:13;;;;;;;1.77;1.40;;;-8.60;91.20;;;;;;4377859;32;20137;-62
2022/03/07 01:53:40;;;;;;;1.95;1.27;;;-8.50;90.50;;;;;;4389745;32;20091;-63
2022/03/07 01:56:09;;;;;;;2.42;1.60;;;-8.50;90.30;;;;;;4390922;32;20073;-62
2022/03/07 01:58:36;;;;;;;2.90;1.48;;;-8.30;89.90;;;;;;4391202;32;20081;-62
2022/03/07 02:01:03;;;;;;;2.67;1.17;;;-8.30;89.10;;;;;;4391315;32;20084;-62
2022/03/07 02:03:30;;;;;;;2.45;1.25;;;-8.20;88.50;;;;;;4391589;32;20093;-63
2022/03/07 02:05:57;;;;;;;2.12;1.45;;;-8.20;87.90;;;;;;4391705;32;20093;-63
2022/03/07 02:08:24;;;;;;;1.80;1.37;;;-8.30;88.80;;;;;;4390477;32;20123;-62
2022/03/07 02:10:50;;;;;;;2.35;1.60;;;-8.30;87.70;;;;;;4377043;32;20504;-62
2022/03/07 02:13:18;;;;;;;2.40;1.10;;;-8.30;88.10;;;;;;4389470;32;20058;-63
2022/03/07 02:15:53;;;;;;;1.98;1.33;;;-8.20;87.60;;;;;;4389689;32;20070;-61
2022/03/07 02:18:21;;;;;;;2.25;1.27;;;-8.30;88.10;;;;;;4390953;32;20511;-61
2022/03/07 02:20:56;;;;;;;1.67;1.30;;;-8.10;87.50;;;;;;4389409;32;20166;-63
2022/03/07 02:23:23;;;;;;;2.15;1.60;;;-8.10;87.60;;;;;;4379589;32;20158;-63
2022/03/07 02:25:49;;;;;;;2.70;1.40;;;-8.00;87.50;;;;;;4393088;32;20104;-61
2022/03/07 02:28:16;;;;;;;1.90;1.37;;;-8.10;86.70;;;;;;4393981;32;20166;-62
2022/03/07 02:30:42;;;;;;;2.03;1.45;;;-7.90;87.30;;;;;;4393662;32;20084;-63
2022/03/07 02:33:13;;;;;;;2.00;1.45;;;-7.80;87.20;;;;;;4392781;32;20164;-62
2022/03/07 02:35:39;;;;;;;2.22;1.50;;;-7.80;87.10;;;;;;4393405;32;20515;-62
2022/03/07 02:38:13;;;;;;;2.17;1.45;;;-7.80;87.30;;;;;;4394258;32;20086;-63
2022/03/07 02:40:41;;;;;;;2.47;1.60;;;-7.80;87.20;;;;;;4392798;32;20601;-63
2022/03/07 02:43:07;;;;;;;2.03;1.50;;;-7.70;87.50;;;;;;4392541;32;20090;-62
2022/03/07 02:45:33;;;;;;;3.90;1.50;;;-7.70;88.10;;;;;;4394365;32;20097;-63
2022/03/07 02:48:00;;;;;;;1.90;1.40;;;-7.80;87.70;;;;;;4392270;32;20081;-62
2022/03/07 02:50:26;;;;;;;2.78;1.60;;;-7.70;88.20;;;;;;4393401;32;20074;-63
2022/03/07 02:52:53;;;;;;;2.53;1.60;;;-7.70;87.60;;;;;;4391936;32;20101;-63
2022/03/07 02:55:19;;;;;;;2.67;1.60;;;-7.60;88.50;;;;;;4393492;32;20091;-63
2022/03/07 02:57:45;;;;;;;2.65;1.60;;;-7.60;89.10;;;;;;4393509;32;20093;-62
2022/03/07 03:00:12;;;;;;;2.65;2.00;;;-7.50;89.80;;;;;;4393155;32;20077;-63
2022/03/07 03:02:39;;;;;;;2.40;1.58;;;-7.60;90.30;;;;;;4391771;32;20066;-62
2022/03/07 03:05:06;;;;;;;2.47;1.65;;;-7.40;90.80;;;;;;4393197;32;20516;-62
2022/03/07 03:07:32;;;;;;;1.75;1.40;;;-7.40;91.70;;;;;;4391804;32;20185;-63
2022/03/07 03:10:00;;;;;;;2.00;1.55;;;-7.40;91.40;;;;;;4392041;32;20078;-63
2022/03/07 03:12:27;;;;;;;1.95;1.45;;;-7.40;92.00;;;;;;4393215;32;20452;-62
2022/03/07 03:14:54;;;;;;;3.72;1.85;;;-7.40;93.30;;;;;;4391671;32;20157;-63
2022/03/07 03:17:20;;;;;;;2.62;1.52;;;-7.40;94.30;;;;;;4391654;32;20170;-63
2022/03/07 03:19:47;;;;;;;3.40;1.60;;;-7.40;95.20;;;;;;4379436;32;20078;-63
2022/03/07 03:22:13;;;;;;;2.30;1.70;;;-7.50;95.50;;;;;;4391438;32;20071;-63
2022/03/07 03:24:39;;;;;;;3.05;1.83;;;-7.50;97.10;;;;;;4393223;32;20429;-63
2022/03/07 03:27:06;;;;;;;2.90;1.40;;;-7.60;97.10;;;;;;4393226;32;20089;-63
2022/03/07 03:29:32;;;;;;;3.35;1.87;;;-7.60;98.50;;;;;;4393091;32;20081;-63
2022/03/07 03:31:59;;;;;;;4.03;1.87;;;-7.70;99.90;;;;;;4392927;32;20535;-63
2022/03/07 03:34:26;;;;;;;3.20;1.58;;;-7.70;99.90;;;;;;4391139;32;20077;-62
2022/03/07 03:36:52;;;;;;;2.85;1.70;;;-7.80;99.90;;;;;;4393340;32;20078;-63
2022/03/07 03:39:18;;;;;;;2.10;1.55;;;-7.80;99.90;;;;;;4392889;32;20090;-62
2022/03/07 03:44:12;;;;;;;2.97;1.60;;;-7.80;99.90;;;;;;3857189;37;20074;-63
2022/03/07 03:46:38;;;;;;;1.85;1.50;;;-7.80;99.90;;;;;;4419045;32;20084;-63
2022/03/07 03:49:05;;;;;;;3.12;1.87;;;-7.80;99.90;;;;;;4419655;32;20165;-63
2022/03/07 03:51:31;;;;;;;5.32;1.90;;;-7.80;99.90;;;;;;4420047;32;20083;-63
2022/03/07 03:53:58;;;;;;;2.45;1.87;;;-7.80;99.90;;;;;;4418981;32;20514;-62
2022/03/07 03:56:24;;;;;;;2.58;2.00;;;-7.70;99.90;;;;;;4418835;32;20111;-62
2022/03/07 03:58:50;;;;;;;1.90;1.40;;;-7.70;99.90;;;;;;4420516;32;20156;-62
2022/03/07 04:01:17;;;;;;;4.75;1.80;;;-7.60;99.90;;;;;;4416950;32;20140;-63
2022/03/07 04:03:43;;;;;;;2.05;1.67;;;-7.70;99.90;;;;;;4404750;32;20065;-63
2022/03/07 04:06:23;;;;;;;2.23;1.40;;;-7.70;99.90;;;;;;3857691;37;20058;-63
2022/03/07 04:09:16;;;;;;;4.80;1.85;;;-7.60;99.90;;;;;;4420562;32;20175;-63
2022/03/07 04:11:43;;;;;;;2.22;1.60;;;-7.60;99.90;;;;;;4420119;32;20588;-62
2022/03/07 04:14:10;;;;;;;2.12;1.50;;;-7.50;99.90;;;;;;4420027;32;20079;-63
2022/03/07 04:16:38;;;;;;;3.12;1.90;;;-7.60;99.90;;;;;;4405518;32;20169;-62
2022/03/07 04:19:06;;;;;;;3.80;2.20;;;-7.60;99.90;;;;;;4419043;32;20081;-63
2022/03/07 04:21:34;;;;;;;2.45;1.70;;;-7.50;99.90;;;;;;4418001;32;20080;-63
2022/03/07 04:24:00;;;;;;;3.70;1.77;;;-7.50;99.90;;;;;;4418701;32;20081;-63
2022/03/07 04:26:27;;;;;;;2.80;2.00;;;-7.50;99.90;;;;;;4418194;32;20574;-63
2022/03/07 04:28:54;;;;;;;2.85;2.15;;;-7.30;99.90;;;;;;4419975;32;20169;-62
2022/03/07 04:31:22;;;;;;;2.65;1.65;;;-7.40;99.90;;;;;;4418205;32;20193;-63
2022/03/07 04:33:48;;;;;;;4.15;1.80;;;-7.40;99.90;;;;;;4418537;32;20092;-63
2022/03/07 04:36:17;;;;;;;2.37;1.60;;;-7.60;99.90;;;;;;4418177;32;20084;-63
2022/03/07 04:38:43;;;;;;;2.08;1.60;;;-7.50;99.90;;;;;;4418392;32;20088;-63
2022/03/07 04:41:10;;;;;;;2.75;1.67;;;-7.40;99.90;;;;;;4417980;32;20089;-63
2022/03/07 04:43:36;;;;;;;3.95;1.70;;;-7.40;99.90;;;;;;4419436;32;20157;-63
2022/03/07 04:46:04;;;;;;;2.37;1.27;;;-7.30;99.90;;;;;;4418628;32;20088;-61
2022/03/07 04:48:31;;;;;;;2.15;1.33;;;-7.40;99.90;;;;;;4417839;32;20081;-62
2022/03/07 04:50:57;;;;;;;1.55;1.12;;;-7.10;99.90;;;;;;4419029;32;20083;-62
2022/03/07 04:53:23;;;;;;;1.65;1.35;;;-7.10;99.90;;;;;;4419262;32;20104;-63
2022/03/07 04:55:50;;;;;;;3.37;1.80;;;-7.40;99.90;;;;;;4419300;32;20072;-64
2022/03/07 04:58:16;;;;;;;3.10;1.77;;;-7.10;99.90;;;;;;4416701;32;20142;-61
2022/03/07 05:00:42;;;;;;;2.60;1.77;;;-7.20;99.90;;;;;;4403886;32;20174;-62
2022/03/07 05:03:09;;;;;;;1.95;0.90;;;-7.30;99.90;;;;;;4403699;32;20081;-61
2022/03/07 05:05:35;;;;;;;2.17;1.40;;;-7.30;99.90;;;;;;4389761;32;20078;-61
2022/03/07 05:08:01;;;;;;;2.35;1.37;;;-7.30;99.90;;;;;;4407139;32;20069;-62
2022/03/07 05:10:28;;;;;;;1.85;1.30;;;-7.30;99.90;;;;;;4403061;32;20537;-62
2022/03/07 05:12:54;;;;;;;2.47;1.50;;;-7.20;99.90;;;;;;4407228;32;20148;-63
2022/03/07 05:15:20;;;;;;;3.28;2.00;;;-7.30;99.90;;;;;;4402820;32;20542;-62
2022/03/07 05:17:56;;;;;;;2.90;1.90;;;-7.20;99.90;;;;;;4394156;32;20078;-62
2022/03/07 05:20:24;;;;;;;3.62;2.15;;;-7.20;99.90;;;;;;4395106;32;20536;-61
2022/03/07 05:22:52;;;;;;;3.42;2.20;;;-7.10;99.90;;;;;;4399183;32;20432;-63
2022/03/07 05:25:20;;;;;;;2.83;2.00;;;-7.10;99.90;;;;;;4400461;32;20078;-62
2022/03/07 05:27:47;;;;;;;4.07;2.20;;;-7.20;99.90;;;;;;4400448;32;20467;-61
2022/03/07 05:30:21;;;;;;;5.07;2.60;;;-7.20;99.90;;;;;;4398107;32;20077;-62
2022/03/07 05:32:50;;;;;;;2.47;1.92;;;-7.10;99.90;;;;;;4386395;32;20588;-63
2022/03/07 05:35:17;;;;;;;4.62;2.17;;;-7.10;99.90;;;;;;4366810;32;20105;-62
2022/03/07 05:37:43;;;;;;;3.20;2.00;;;-6.90;99.90;;;;;;4392114;32;20095;-62
2022/03/07 05:40:11;;;;;;;2.95;1.87;;;-6.80;99.90;;;;;;4393021;32;20095;-61
2022/03/07 05:42:39;;;;;;;2.75;1.95;;;-6.70;99.90;;;;;;4404475;32;20149;-63
2022/03/07 05:45:08;;;;;;;2.60;1.80;;;-6.60;99.90;;;;;;4391657;32;20101;-62
2022/03/07 05:47:35;;;;;;;3.25;1.67;;;-6.50;99.90;;;;;;4391755;32;20101;-61
2022/03/07 05:50:03;;;;;;;3.15;1.77;;;-6.80;99.90;;;;;;4391909;32;20089;-62
2022/03/07 05:52:30;;;;;;;2.90;1.87;;;-6.70;99.90;;;;;;4391890;32;20588;-62
2022/03/07 05:54:56;;;;;;;4.20;2.17;;;-6.50;99.90;;;;;;4391863;32;20093;-62
2022/03/07 05:57:23;;;;;;;2.55;1.98;;;-6.30;99.90;;;;;;4396268;32;20154;-62
2022/03/07 05:59:49;;;;;;;3.62;2.22;;;-6.30;99.90;;;;;;4373960;32;20495;-62
2022/03/07 06:02:16;;;;;;;5.95;2.47;;;-6.10;99.90;;;;;;4397244;32;20065;-64
2022/03/07 06:04:42;;;;;;;2.92;1.80;;;-6.40;99.90;;;;;;4394662;32;20569;-62
2022/03/07 06:07:09;;;;;;;3.10;2.25;;;-6.50;99.90;;;;;;4394181;32;20081;-62
2022/03/07 06:09:35;;;;;;;4.28;2.25;;;-6.20;99.90;;;;;;4397882;32;20093;-62
2022/03/07 06:12:03;;;;;;;5.60;2.30;;;-6.30;99.90;;;;;;4398489;32;20088;-61
2022/03/07 06:14:29;;;;;;;4.37;2.37;;;-6.20;99.90;;;;;;4397451;32;20081;-64
2022/03/07 06:16:56;;;;;;;2.72;2.00;;;-6.20;99.90;;;;;;4383338;32;20097;-63
2022/03/07 06:19:22;;;;;;;3.70;2.42;;;-5.90;99.90;;;;;;4398832;32;20073;-62
2022/03/07 06:21:48;;;;;;;4.62;2.50;;;-5.90;99.90;;;;;;4396461;32;20092;-62
2022/03/07 06:24:15;;;;;;;4.32;2.30;;;-5.80;99.90;;;;;;4379478;32;20089;-62
2022/03/07 06:26:41;;;;;;;3.62;2.15;;;-5.80;99.90;;;;;;4394042;32;20165;-61
2022/03/07 06:29:08;;;;;;;3.55;2.22;;;-6.00;99.90;;;;;;4393639;32;20065;-63
2022/03/07 06:31:34;;;;;;;3.78;2.72;;;-5.60;99.90;;;;;;4397670;32;20093;-62
2022/03/07 06:34:02;;;;;;;3.62;2.60;;;-5.70;99.90;;;;;;4396943;32;20078;-62
2022/03/07 06:36:29;;;;;;;4.30;2.42;;;-5.70;99.90;;;;;;4383257;32;20085;-63
2022/03/07 06:38:55;;;;;;;5.82;2.75;;;-5.40;99.90;;;;;;4396336;32;20132;-62
2022/03/07 06:41:21;;;;;;;4.47;2.85;;;-5.50;99.90;;;;;;4396249;32;20504;-65
2022/03/07 06:43:48;;;;;;;5.12;2.95;;;-5.30;99.90;;;;;;4394823;32;20086;-63
2022/03/07 06:46:14;;;;;;;3.90;2.53;;;-5.30;99.90;;;;;;4395365;32;20101;-63
2022/03/07 06:48:40;;;;;;;3.28;2.25;;;-5.20;99.90;;;;;;4392846;32;20081;-66
2022/03/07 06:51:07;;;;;;;4.07;2.85;;;-5.40;99.90;;;;;;4391645;32;20519;-63
2022/03/07 06:53:34;;;;;;;4.43;2.60;;;-5.10;99.90;;;;;;4393645;32;20089;-64
2022/03/07 06:56:00;;;;;;;4.40;2.80;;;-5.10;99.90;;;;;;4403098;32;20082;-62
2022/03/07 06:58:27;;;;;;;3.90;2.78;;;-5.40;99.90;;;;;;4402956;32;20145;-64
2022/03/07 07:00:53;;;;;;;4.18;2.53;;;-5.10;99.90;;;;;;4401252;32;20068;-63
2022/03/07 07:03:19;;;;;;;3.75;2.42;;;-5.30;99.90;;;;;;4396355;32;20088;-67
2022/03/07 07:05:45;;;;;;;4.65;2.75;;;-5.40;99.90;;;;;;4392620;32;20147;-63
2022/03/07 07:08:12;;;;;;;3.50;2.45;;;-5.00;99.90;;;;;;4391607;32;20100;-63
2022/03/07 07:10:38;;;;;;;3.25;2.20;;;-4.80;99.90;;;;;;4392199;32;20069;-63
2022/03/07 07:13:04;;;;;;;4.07;2.62;;;-4.80;99.90;;;;;;4392344;32;20085;-62
2022/03/07 07:15:31;;;;;;;5.55;3.30;;;-4.80;99.90;;;;;;4390761;32;20101;-63
2022/03/07 07:17:57;;;;;;;3.92;2.80;;;-5.00;99.90;;;;;;4390463;32;20089;-62
2022/03/07 07:20:23;;;;;;;5.57;2.95;;;-4.70;99.90;;;;;;4365497;32;20094;-63
2022/03/07 07:22:50;;;;;;;5.30;3.03;;;-5.00;99.90;;;;;;4390701;32;20077;-62
2022/03/07 07:25:16;;;;;;;5.75;2.80;;;-4.30;99.90;;;;;;4390253;32;20090;-63
2022/03/07 07:27:42;;;;;;;4.45;2.92;;;-4.50;99.90;;;;;;4390339;32;20069;-63
2022/03/07 07:30:09;;;;;;;4.60;2.97;;;-4.60;99.90;;;;;;4391704;32;20077;-62
2022/03/07 07:32:38;;;;;;;4.97;3.10;;;-4.50;99.90;;;;;;4390036;32;20162;-63
2022/03/07 07:35:07;;;;;;;5.37;2.97;;;-4.60;99.90;;;;;;4403671;32;20080;-62
2022/03/07 07:37:34;;;;;;;3.70;2.45;;;-4.70;99.90;;;;;;4390148;32;20093;-63
2022/03/07 07:40:00;;;;;;;5.78;3.05;;;-4.00;99.90;;;;;;4391890;32;20074;-62
2022/03/07 07:42:27;;;;;;;5.25;3.28;;;-4.20;99.90;;;;;;4391054;32;20100;-61
2022/03/07 07:44:53;;;;;;;5.03;3.10;;;-4.50;99.90;;;;;;4379501;32;20509;-65
2022/03/07 07:47:20;;;;;;;5.57;2.80;;;-4.50;99.90;;;;;;4392915;32;20085;-63
2022/03/07 07:49:46;;;;;;;3.95;2.80;;;-4.50;99.90;;;;;;4390386;32;20519;-62
2022/03/07 07:52:12;;;;;;;4.80;3.40;;;-4.60;99.90;;;;;;4390564;32;20090;-63
2022/03/07 07:54:39;;;;;;;5.65;2.78;;;-4.30;99.90;;;;;;4391785;32;20097;-62
2022/03/07 07:57:07;;;;;;;6.20;3.90;;;-4.30;99.90;;;;;;4391686;32;20091;-62
2022/03/07 07:59:34;;;;;;;5.32;3.35;;;-4.00;99.90;;;;;;4391489;32;20074;-63
2022/03/07 08:02:01;;;;;;;5.28;3.33;;;-3.40;99.90;;;;;;4391609;32;20081;-63
2022/03/07 08:04:27;;;;;;;5.57;3.62;;;-3.90;99.90;;;;;;4377183;32;20157;-62
2022/03/07 08:06:53;;;;;;;7.32;3.67;;;-4.10;99.90;;;;;;4389962;32;20100;-63
2022/03/07 08:09:20;;;;;;;6.07;3.55;;;-3.20;99.90;;;;;;4391316;32;20069;-63
2022/03/07 08:11:46;;;;;;;6.18;4.10;;;-2.80;99.90;;;;;;4389864;32;20081;-62
2022/03/07 08:14:13;;;;;;;5.82;3.75;;;-2.70;99.90;;;;;;4389854;32;20459;-62
2022/03/07 08:16:39;;;;;;;3.65;2.65;;;-2.60;99.90;;;;;;4391969;32;20466;-62
2022/03/07 08:19:05;;;;;;;5.45;3.55;;;-3.00;99.90;;;;;;4392663;32;20169;-62
2022/03/07 08:21:32;;;;;;;4.35;2.72;;;-3.60;99.90;;;;;;4391469;32;20162;-64
2022/03/07 08:24:02;;;;;;;4.32;2.95;;;-3.60;99.90;;;;;;4389780;32;20093;-62
2022/03/07 08:26:28;;;;;;;4.40;3.05;;;-3.30;99.90;;;;;;4389813;32;20097;-62
2022/03/07 08:28:55;;;;;;;4.00;2.92;;;-3.20;99.90;;;;;;4390132;32;20149;-62
2022/03/07 08:31:21;;;;;;;6.10;3.30;;;-3.30;99.90;;;;;;4391616;32;20115;-63
2022/03/07 08:33:48;;;;;;;5.07;3.60;;;-2.90;99.90;;;;;;4391258;32;20160;-63
2022/03/07 08:36:14;;;;;;;5.03;2.97;;;-2.60;99.90;;;;;;4392727;32;20506;-63
2022/03/07 08:38:40;;;;;;;5.90;3.33;;;-3.30;99.90;;;;;;4402877;32;20084;-64
2022/03/07 08:41:07;;;;;;;6.45;3.85;;;-3.00;99.90;;;;;;4391839;32;20078;-63
2022/03/07 08:43:33;;;;;;;7.43;4.10;;;-2.80;99.90;;;;;;4377213;32;20093;-62
2022/03/07 08:46:01;;;;;;;7.12;3.53;;;-3.10;99.90;;;;;;4389582;32;20155;-64
2022/03/07 08:48:29;;;;;;;7.18;4.18;;;-2.90;99.90;;;;;;4389461;32;20070;-62
2022/03/07 08:50:56;;;;;;;7.35;3.92;;;-2.80;99.90;;;;;;4389613;32;20078;-63
2022/03/07 08:53:22;;;;;;;6.45;3.80;;;-2.50;99.90;;;;;;4393815;32;20069;-61
2022/03/07 08:55:48;;;;;;;6.85;4.15;;;-2.80;99.90;;;;;;4393079;32;20081;-62
2022/03/07 08:58:15;;;;;;;6.60;4.05;;;-2.60;99.90;;;;;;4394339;32;20151;-63
2022/03/07 09:00:41;;;;;;;6.10;3.28;;;-2.80;99.90;;;;;;4393237;32;20093;-63
2022/03/07 09:03:07;;;;;;;6.40;3.97;;;-2.30;99.90;;;;;;4393742;32;20074;-62
2022/03/07 09:05:35;;;;;;;7.60;4.50;;;-2.50;99.90;;;;;;4393405;32;20076;-62
2022/03/07 09:08:02;;;;;;;6.78;4.10;;;-2.20;99.90;;;;;;4393791;32;20093;-63
2022/03/07 09:10:29;;;;;;;6.65;3.72;;;-2.30;99.90;;;;;;4392501;32;20082;-62
2022/03/07 09:12:55;;;;;;;6.40;3.95;;;-2.30;99.90;;;;;;4393650;32;20093;-63
2022/03/07 09:15:22;;;;;;;6.50;3.62;;;-2.50;99.90;;;;;;4392126;32;20069;-63
2022/03/07 09:17:48;;;;;;;6.07;4.10;;;-2.20;99.90;;;;;;4393547;32;20095;-63
2022/03/07 09:20:17;;;;;;;7.62;4.68;;;-2.30;99.90;;;;;;4392316;32;20516;-63
2022/03/07 09:22:44;;;;;;;7.57;3.58;;;-2.20;99.90;;;;;;4393848;32;20274;-62
2022/03/07 09:25:11;;;;;;;7.18;3.80;;;-2.40;99.90;;;;;;4379559;32;20066;-63
2022/03/07 09:27:38;;;;;;;5.78;3.80;;;-2.40;99.90;;;;;;4392307;32;20171;-63
2022/03/07 09:30:06;;;;;;;8.38;5.25;;;-2.30;99.90;;;;;;4391977;32;20070;-63
2022/03/07 09:32:33;;;;;;;6.95;3.97;;;-1.50;99.90;;;;;;4391863;32;20522;-62
2022/03/07 09:34:59;;;;;;;6.62;4.20;;;-1.90;99.90;;;;;;4393166;32;20491;-63
2022/03/07 09:37:26;;;;;;;8.70;4.85;;;-1.50;99.90;;;;;;4391981;32;20145;-63
2022/03/07 09:39:52;;;;;;;7.03;3.97;;;-2.30;99.90;;;;;;4391677;32;20202;-63
2022/03/07 09:42:18;;;;;;;6.80;4.50;;;-2.40;99.90;;;;;;4393150;32;20165;-63
2022/03/07 09:44:45;;;;;;;6.90;3.85;;;-2.00;99.90;;;;;;4392920;32;20588;-63
2022/03/07 09:47:12;;;;;;;7.70;4.03;;;-1.70;99.90;;;;;;4392709;32;20526;-63
2022/03/07 09:49:38;;;;;;;7.25;4.57;;;-1.80;99.90;;;;;;4404065;32;20105;-62
2022/03/07 09:52:05;;;;;;;7.72;4.28;;;-1.70;99.90;;;;;;4391435;32;20100;-63
2022/03/07 09:54:31;;;;;;;7.85;4.25;;;-1.70;99.90;;;;;;4393318;32;20085;-63
2022/03/07 09:56:58;;;;;;;6.57;3.87;;;-1.00;99.90;;;;;;4379230;32;20504;-63
2022/03/07 09:59:25;;;;;;;5.65;3.60;;;-1.30;99.90;;;;;;4392877;32;20094;-63
2022/03/07 10:02:24;;;;;;;6.03;3.90;;;-1.30;99.90;;;;;;4392715;32;20074;-62
2022/03/07 10:04:51;;;;;;;7.57;4.60;;;-0.80;99.90;;;;;;4389235;32;20080;-62
2022/03/07 10:07:17;;;;;;;6.43;4.43;;;-0.60;99.90;;;;;;4391395;32;20201;-63
2022/03/07 10:09:46;;;;;;;7.30;4.55;;;-0.40;99.90;;;;;;4404056;32;20097;-62
2022/03/07 10:12:12;;;;;;;9.02;5.18;;;-0.60;99.90;;;;;;4378959;32;20511;-62
2022/03/07 10:14:46;;;;;;;6.43;4.05;;;-0.80;99.90;;;;;;4391603;32;20201;-63
2022/03/07 10:17:31;;;;;;;6.87;4.32;;;-0.50;99.90;;;;;;4366803;32;20079;-63
2022/03/07 10:20:04;;;;;;;6.45;4.03;;;-0.20;99.90;;;;;;4392867;32;20081;-63
2022/03/07 10:22:31;;;;;;;7.30;4.50;;;-0.40;99.90;;;;;;4391228;32;20088;-63
2022/03/07 10:25:07;;;;;;;8.27;4.93;;;-0.30;99.90;;;;;;4392142;32;20138;-63
2022/03/07 10:27:40;;;;;;;7.53;4.57;;;-0.70;99.90;;;;;;4391729;32;20439;-63
2022/03/07 10:30:17;;;;;;;8.00;5.00;;;-1.50;99.90;;;;;;4392577;32;20078;-63
2022/03/07 10:32:52;;;;;;;10.45;4.55;;;-1.90;99.90;;;;;;4391510;32;20074;-63
2022/03/07 10:35:33;;;;;;;7.93;4.20;;;-1.70;99.90;;;;;;4379432;32;20079;-62
2022/03/07 10:38:13;;;;;;;7.37;4.90;;;-1.10;99.90;;;;;;4395120;32;20145;-63
2022/03/07 10:40:44;;;;;;;6.62;4.82;;;-1.60;99.90;;;;;;4392945;32;20077;-63
2022/03/07 10:43:12;;;;;;;8.40;4.50;;;-1.80;99.90;;;;;;4366132;32;20086;-63
2022/03/07 10:46:04;;;;;;;8.45;4.80;;;-1.20;99.90;;;;;;4392066;32;20065;-63
2022/03/07 10:48:43;;;;;;;8.55;4.75;;;-1.10;99.90;;;;;;4391200;32;20077;-62
2022/03/07 10:51:17;;;;;;;7.22;4.57;;;-1.00;99.90;;;;;;4392468;32;20082;-63
2022/03/07 10:53:43;;;;;;;7.82;5.00;;;-0.70;99.90;;;;;;4378261;32;20154;-63
2022/03/07 10:56:16;;;;;;;8.18;4.97;;;-0.80;99.90;;;;;;4391801;32;20429;-63
2022/03/07 10:58:49;;;;;;;8.30;4.43;;;-1.00;99.90;;;;;;4391463;32;20175;-63
2022/03/07 11:01:27;;;;;;;7.50;4.62;;;-1.40;99.90;;;;;;4365552;32;20096;-63
2022/03/07 11:03:53;;;;;;;7.97;4.93;;;-1.50;99.90;;;;;;4390692;32;20152;-62
2022/03/07 11:06:20;;;;;;;7.72;4.90;;;-1.90;99.90;;;;;;4391794;32;20081;-63
2022/03/07 11:08:46;;;;;;;6.55;4.20;;;-1.70;99.90;;;;;;4403068;32;20634;-62
2022/03/07 11:11:15;;;;;;;7.20;4.80;;;-1.40;99.90;;;;;;4377903;32;20097;-63
2022/03/07 11:13:43;;;;;;;8.77;5.00;;;-1.30;99.90;;;;;;4390788;32;20074;-63
2022/03/07 11:16:12;;;;;;;8.15;5.37;;;-2.20;99.90;;;;;;4390873;32;20518;-63
2022/03/07 11:18:39;;;;;;;9.60;5.30;;;-2.30;99.90;;;;;;4390091;32;20082;-62
2022/03/07 11:21:06;;;;;;;5.82;4.05;;;-2.60;99.90;;;;;;4390136;32;20078;-62
2022/03/07 11:23:33;;;;;;;8.18;4.20;;;-2.50;99.90;;;;;;4390153;32;20079;-62
2022/03/07 11:26:00;;;;;;;6.20;4.00;;;-2.10;99.90;;;;;;4391484;32;20476;-62
2022/03/07 11:28:29;;;;;;;6.50;3.67;;;-2.40;99.90;;;;;;4391027;32;20088;-62
2022/03/07 11:30:55;;;;;;;7.12;4.32;;;-2.60;99.90;;;;;;4378423;32;20149;-63
2022/03/07 11:33:33;;;;;;;6.70;4.53;;;-2.90;99.90;;;;;;4391584;32;20150;-62
2022/03/07 11:36:02;;;;;;;8.20;4.32;;;-3.10;99.90;;;;;;4391693;32;20076;-63
2022/03/07 11:38:32;;;;;;;6.87;4.78;;;-3.00;99.90;;;;;;4390584;32;20058;-62
2022/03/07 11:41:10;;;;;;;9.25;4.72;;;-3.10;99.90;;;;;;4390611;32;20093;-62
2022/03/07 11:44:06;;;;;;;6.32;3.70;;;-2.90;99.90;;;;;;4390539;32;20073;-63
2022/03/07 11:46:36;;;;;;;7.65;4.80;;;-2.50;99.90;;;;;;4390771;32;20161;-62
2022/03/07 11:49:07;;;;;;;7.18;4.03;;;-2.80;99.90;;;;;;4390685;32;20138;-63
2022/03/07 11:51:36;;;;;;;9.07;5.57;;;-2.60;99.90;;;;;;4389800;32;20101;-62
2022/03/07 11:54:04;;;;;;;8.20;4.78;;;-2.40;99.90;;;;;;4391491;32;20089;-63
2022/03/07 11:56:36;;;;;;;5.97;3.85;;;-2.80;99.90;;;;;;4390701;32;20069;-63
2022/03/07 11:59:08;;;;;;;7.47;4.45;;;-2.70;99.90;;;;;;4390693;32;20118;-62
2022/03/07 12:01:35;;;;;;;7.43;4.22;;;-2.70;99.90;;;;;;4377509;32;20086;-63
2022/03/07 12:04:38;;;;;;;8.25;5.45;;;-2.50;99.90;;;;;;4389729;32;20090;-63
2022/03/07 12:07:05;;;;;;;8.52;4.75;;;-2.80;99.90;;;;;;4390459;32;20093;-61
2022/03/07 12:09:37;;;;;;;6.60;4.40;;;-2.90;99.90;;;;;;4391362;32;20073;-63
2022/03/07 12:12:10;;;;;;;9.18;4.30;;;-2.90;99.90;;;;;;4391352;32;20086;-63
2022/03/07 12:14:42;;;;;;;5.62;3.95;;;-2.50;99.90;;;;;;4389912;32;20150;-63
2022/03/07 12:17:19;;;;;;;7.30;4.87;;;-2.60;99.90;;;;;;4389604;32;20531;-63
2022/03/07 12:19:55;;;;;;;7.75;3.95;;;-2.80;99.90;;;;;;4377778;32;20094;-63
2022/03/07 12:22:31;;;;;;;7.63;4.50;;;-2.60;99.90;;;;;;4391382;32;20213;-64
2022/03/07 12:25:07;;;;;;;6.45;4.43;;;-2.70;99.90;;;;;;4377517;32;20100;-63
2022/03/07 12:27:37;;;;;;;7.70;4.20;;;-2.70;99.90;;;;;;4393273;32;20162;-62
2022/03/07 12:30:07;;;;;;;7.25;4.40;;;-2.80;99.90;;;;;;4380767;32;20073;-63
2022/03/07 12:32:36;;;;;;;8.90;4.43;;;-2.90;99.90;;;;;;4394178;32;20082;-63
2022/03/07 12:35:03;;;;;;;9.73;4.80;;;-3.20;99.90;;;;;;4392912;32;20084;-63
2022/03/07 12:37:30;;;;;;;6.18;3.83;;;-3.30;99.90;;;;;;4380048;32;20444;-63
2022/03/07 12:40:06;;;;;;;6.93;4.03;;;-3.10;99.90;;;;;;4393850;32;20517;-63
2022/03/07 12:42:38;;;;;;;6.00;3.87;;;-3.10;99.90;;;;;;4368026;32;20093;-62
2022/03/07 12:45:06;;;;;;;7.10;4.12;;;-3.10;99.90;;;;;;4393947;32;20166;-63
2022/03/07 12:47:41;;;;;;;6.32;4.47;;;-3.10;99.90;;;;;;4394141;32;20085;-63
2022/03/07 12:50:10;;;;;;;7.43;4.10;;;-3.20;99.90;;;;;;4393115;32;20093;-63
2022/03/07 12:52:40;;;;;;;8.93;4.45;;;-3.40;99.90;;;;;;4392771;32;20088;-63
2022/03/07 12:55:13;;;;;;;6.75;4.12;;;-3.40;99.90;;;;;;4399943;32;20066;-62